createdAt,value
2018-02-16T00:01:27.039Z,9.30
2018-02-16T00:03:53.331Z,8.40
2018-02-16T00:06:20.363Z,9.15
2018-02-16T00:08:46.639Z,8.27
2018-02-16T00:11:12.961Z,7.40
2018-02-16T00:13:39.315Z,8.18
2018-02-16T00:16:05.594Z,7.53
2018-02-16T00:18:32.115Z,8.73
2018-02-16T00:20:58.614Z,6.90
2018-02-16T00:23:25.089Z,7.05
2018-02-16T00:25:51.394Z,6.47
2018-02-16T00:28:17.674Z,7.50
2018-02-16T00:30:44.734Z,7.78
2018-02-16T00:33:11.039Z,6.70
2018-02-16T00:35:38.054Z,7.65
2018-02-16T00:38:04.350Z,7.37
2018-02-16T00:40:30.650Z,6.40
2018-02-16T00:42:58.063Z,6.95
2018-02-16T00:45:24.395Z,6.28
2018-02-16T00:47:50.689Z,5.87
2018-02-16T00:50:16.966Z,4.95
2018-02-16T00:52:43.301Z,4.35
2018-02-16T00:55:09.595Z,3.80
2018-02-16T00:57:35.900Z,4.22
2018-02-16T01:00:02.956Z,4.20
2018-02-16T01:02:29.303Z,4.70
2018-02-16T01:04:55.594Z,3.97
2018-02-16T01:07:21.919Z,4.15
2018-02-16T01:09:48.990Z,4.22
2018-02-16T01:12:16.011Z,4.65
2018-02-16T01:14:42.319Z,5.85
2018-02-16T01:17:10.118Z,6.20
2018-02-16T01:19:36.515Z,5.28
2018-02-16T01:22:02.944Z,3.92
2018-02-16T01:24:29.362Z,3.47
2018-02-16T01:26:55.658Z,3.50
2018-02-16T01:29:22.711Z,7.10
2018-02-16T01:31:49.015Z,5.50
2018-02-16T01:34:15.310Z,2.90
2018-02-16T01:36:41.600Z,2.80
2018-02-16T01:39:08.619Z,2.65
2018-02-16T01:41:34.912Z,2.92
2018-02-16T01:44:01.216Z,4.10
2018-02-16T01:46:27.518Z,2.85
2018-02-16T01:48:54.534Z,2.53
2018-02-16T01:51:20.831Z,3.00
2018-02-16T01:53:47.171Z,3.37
2018-02-16T01:56:13.471Z,3.25
2018-02-16T01:58:40.509Z,3.95
2018-02-16T02:01:08.446Z,3.90
2018-02-16T02:03:35.535Z,4.15
2018-02-16T02:06:03.666Z,5.15
2018-02-16T02:08:29.951Z,4.75
2018-02-16T02:10:56.251Z,5.50
2018-02-16T02:13:22.534Z,6.18
2018-02-16T02:15:48.823Z,7.25
2018-02-16T02:18:15.880Z,6.35
2018-02-16T02:20:43.568Z,5.65
2018-02-16T02:23:09.876Z,5.60
2018-02-16T02:25:36.902Z,7.20
2018-02-16T02:28:03.204Z,8.70
2018-02-16T02:30:30.500Z,7.05
2018-02-16T02:32:57.511Z,7.72
2018-02-16T02:35:23.855Z,7.90
2018-02-16T02:37:50.151Z,8.23
2018-02-16T02:40:16.430Z,7.28
2018-02-16T02:42:43.472Z,7.55
2018-02-16T02:45:09.754Z,7.40
2018-02-16T02:47:37.083Z,6.65
2018-02-16T02:50:04.123Z,7.43
2018-02-16T02:52:32.190Z,7.30
2018-02-16T02:54:59.211Z,6.25
2018-02-16T02:57:26.247Z,7.80
2018-02-16T02:59:52.577Z,7.00
2018-02-16T03:02:19.103Z,5.53
2018-02-16T03:04:45.394Z,6.07
2018-02-16T03:07:11.683Z,7.60
2018-02-16T03:09:37.971Z,6.55
2018-02-16T03:12:04.282Z,7.28
2018-02-16T03:14:31.296Z,6.70
2018-02-16T03:16:57.614Z,7.15
2018-02-16T03:19:23.906Z,7.05
2018-02-16T03:21:50.187Z,6.78
2018-02-16T03:24:16.462Z,6.30
2018-02-16T03:26:42.826Z,6.05
2018-02-16T03:29:09.155Z,6.75
2018-02-16T03:31:35.436Z,6.72
2018-02-16T03:34:02.461Z,6.57
2018-02-16T03:36:28.742Z,6.53
2018-02-16T03:38:55.015Z,6.07
2018-02-16T03:41:22.354Z,6.60
2018-02-16T03:43:48.659Z,6.65
2018-02-16T03:46:14.940Z,6.05
2018-02-16T03:48:42.983Z,5.68
2018-02-16T03:51:09.289Z,6.00
2018-02-16T03:53:35.596Z,4.95
2018-02-16T03:56:01.895Z,5.25
2018-02-16T03:58:28.209Z,5.20
2018-02-16T04:00:54.534Z,6.55
2018-02-16T04:03:20.842Z,6.40
2018-02-16T04:05:47.143Z,4.93
2018-02-16T04:08:14.162Z,6.68
2018-02-16T04:10:40.491Z,5.65
2018-02-16T04:13:06.785Z,5.85
2018-02-16T04:15:33.111Z,4.60
2018-02-16T04:17:59.402Z,6.03
2018-02-16T04:20:26.454Z,6.12
2018-02-16T04:22:53.485Z,5.07
2018-02-16T04:25:20.534Z,6.30
2018-02-16T04:27:48.306Z,5.25
2018-02-16T04:30:16.364Z,5.45
2018-02-16T04:32:43.687Z,5.70
2018-02-16T04:35:09.997Z,5.75
2018-02-16T04:37:36.858Z,5.50
2018-02-16T04:40:03.176Z,5.22
2018-02-16T04:42:29.482Z,5.75
2018-02-16T04:44:55.771Z,5.68
2018-02-16T04:47:22.058Z,6.20
2018-02-16T04:49:48.336Z,6.93
2018-02-16T04:52:14.618Z,6.28
2018-02-16T04:54:41.963Z,6.22
2018-02-16T04:57:08.265Z,6.97
2018-02-16T04:59:35.303Z,6.50
2018-02-16T05:02:01.650Z,6.25
2018-02-16T05:04:28.670Z,7.47
2018-02-16T05:06:54.970Z,7.30
2018-02-16T05:09:21.257Z,6.85
2018-02-16T05:11:48.283Z,5.87
2018-02-16T05:14:14.590Z,7.30
2018-02-16T05:16:40.882Z,6.68
2018-02-16T05:19:07.190Z,6.65
2018-02-16T05:21:34.219Z,6.90
2018-02-16T05:24:00.500Z,6.45
2018-02-16T05:26:27.514Z,6.57
2018-02-16T05:28:54.546Z,5.50
2018-02-16T05:31:20.835Z,6.05
2018-02-16T05:33:47.118Z,5.70
2018-02-16T05:36:14.154Z,5.35
2018-02-16T05:38:40.463Z,5.30
2018-02-16T05:41:06.763Z,4.93
2018-02-16T05:43:33.046Z,6.80
2018-02-16T05:45:59.328Z,4.87
2018-02-16T05:48:25.714Z,5.32
2018-02-16T05:50:52.730Z,5.20
2018-02-16T05:53:19.077Z,4.68
2018-02-16T05:55:46.402Z,4.93
2018-02-16T05:58:12.685Z,4.50
2018-02-16T06:00:39.739Z,4.40
2018-02-16T06:03:06.762Z,3.12
2018-02-16T06:05:33.044Z,2.97
2018-02-16T06:07:59.358Z,3.70
2018-02-16T06:10:25.626Z,3.03
2018-02-16T06:12:51.930Z,3.60
2018-02-16T06:15:18.210Z,3.33
2018-02-16T06:17:44.515Z,2.92
2018-02-16T06:20:10.795Z,4.00
2018-02-16T06:22:37.828Z,4.60
2018-02-16T06:25:05.138Z,3.92
2018-02-16T06:27:31.426Z,3.90
2018-02-16T06:29:58.450Z,4.10
2018-02-16T06:32:25.467Z,3.28
2018-02-16T06:34:51.738Z,2.50
2018-02-16T06:37:18.832Z,3.03
2018-02-16T06:39:45.138Z,2.75
2018-02-16T06:42:11.415Z,2.58
2018-02-16T06:44:37.713Z,2.20
2018-02-16T06:47:04.010Z,3.33
2018-02-16T06:49:31.044Z,1.67
2018-02-16T06:51:57.315Z,2.10
2018-02-16T06:54:23.766Z,1.85
2018-02-16T06:56:50.036Z,1.98
2018-02-16T06:59:16.317Z,1.80
2018-02-16T07:01:42.623Z,1.55
2018-02-16T07:04:08.895Z,1.23
2018-02-16T07:06:35.170Z,1.25
2018-02-16T07:09:02.986Z,1.25
2018-02-16T07:11:29.367Z,1.23
2018-02-16T07:13:56.556Z,0.90
2018-02-16T07:16:22.826Z,0.77
2018-02-16T07:18:50.118Z,0.68
2018-02-16T07:21:17.126Z,0.77
2018-02-16T07:23:43.443Z,0.95
2018-02-16T07:26:09.807Z,0.75
2018-02-16T07:28:36.827Z,0.80
2018-02-16T07:31:03.152Z,0.85
2018-02-16T07:33:29.411Z,0.60
2018-02-16T07:35:55.679Z,1.98
2018-02-16T07:38:21.990Z,0.55
2018-02-16T07:40:49.007Z,0.88
2018-02-16T07:43:15.277Z,1.52
2018-02-16T07:45:41.573Z,0.70
2018-02-16T07:48:07.893Z,0.85
2018-02-16T07:50:34.187Z,0.62
2018-02-16T07:53:00.486Z,0.65
2018-02-16T07:55:27.516Z,0.80
2018-02-16T07:57:53.797Z,0.60
2018-02-16T08:00:21.118Z,0.80
2018-02-16T08:02:48.170Z,1.55
2018-02-16T08:05:15.191Z,1.30
2018-02-16T08:07:41.482Z,1.60
2018-02-16T08:10:07.761Z,1.25
2018-02-16T08:12:34.790Z,0.80
2018-02-16T08:15:01.107Z,1.50
2018-02-16T08:17:27.386Z,1.55
2018-02-16T08:19:53.662Z,1.40
2018-02-16T08:22:19.979Z,1.20
2018-02-16T08:24:46.244Z,0.65
2018-02-16T08:27:13.390Z,1.37
2018-02-16T08:29:39.715Z,1.10
2018-02-16T08:32:06.018Z,0.85
2018-02-16T08:34:32.319Z,0.95
2018-02-16T08:36:58.591Z,0.70
2018-02-16T08:39:24.882Z,0.62
2018-02-16T08:41:51.163Z,0.70
2018-02-16T08:44:17.448Z,0.70
2018-02-16T08:46:43.742Z,0.65
2018-02-16T08:49:10.759Z,0.70
2018-02-16T08:51:37.059Z,0.45
2018-02-16T08:54:03.334Z,0.50
2018-02-16T08:56:29.598Z,0.62
2018-02-16T08:58:56.614Z,0.62
2018-02-16T09:01:22.907Z,0.80
2018-02-16T09:03:49.225Z,0.68
2018-02-16T09:06:15.498Z,0.47
2018-02-16T09:08:41.780Z,1.00
2018-02-16T09:11:08.090Z,1.17
2018-02-16T09:13:35.484Z,0.73
2018-02-16T09:16:01.780Z,1.48
2018-02-16T09:18:28.791Z,0.90
2018-02-16T09:20:55.839Z,0.77
2018-02-16T09:23:22.138Z,0.80
2018-02-16T09:25:48.501Z,0.77
2018-02-16T09:28:14.811Z,0.40
2018-02-16T09:30:41.113Z,1.15
2018-02-16T09:33:07.464Z,0.57
2018-02-16T09:35:35.733Z,0.47
2018-02-16T09:38:02.012Z,0.40
2018-02-16T09:40:29.050Z,2.30
2018-02-16T09:42:55.332Z,2.78
2018-02-16T09:45:21.637Z,3.00
2018-02-16T09:47:48.650Z,1.42
2018-02-16T09:50:14.940Z,0.70
2018-02-16T09:52:41.286Z,2.05
2018-02-16T09:55:07.604Z,2.75
2018-02-16T09:57:33.892Z,1.00
2018-02-16T10:00:00.906Z,0.52
2018-02-16T10:02:27.207Z,0.60
2018-02-16T10:04:53.534Z,0.90
2018-02-16T10:07:19.843Z,1.37
2018-02-16T10:09:47.862Z,1.52
2018-02-16T10:12:14.882Z,2.22
2018-02-16T10:14:41.158Z,1.85
2018-02-16T10:17:07.464Z,1.30
2018-02-16T10:19:33.763Z,1.10
2018-02-16T10:22:00.777Z,0.55
2018-02-16T10:24:27.063Z,0.80
2018-02-16T10:26:53.335Z,0.70
2018-02-16T10:29:19.651Z,0.88
2018-02-16T10:31:45.926Z,0.82
2018-02-16T10:34:12.976Z,0.60
2018-02-16T10:36:39.991Z,1.10
2018-02-16T10:39:06.276Z,1.17
2018-02-16T10:41:32.586Z,0.50
2018-02-16T10:43:58.871Z,2.72
2018-02-16T10:46:25.142Z,1.40
2018-02-16T10:48:51.422Z,0.95
2018-02-16T10:51:17.703Z,1.00
2018-02-16T10:53:44.011Z,0.95
2018-02-16T10:56:11.024Z,1.02
2018-02-16T10:58:37.315Z,1.35
2018-02-16T11:01:09.666Z,1.10
2018-02-16T11:03:37.699Z,1.30
2018-02-16T11:06:04.018Z,1.90
2018-02-16T11:08:36.396Z,6.20
2018-02-16T11:11:02.710Z,6.82
2018-02-16T11:13:29.015Z,7.32
2018-02-16T11:15:55.295Z,2.95
2018-02-16T11:18:22.254Z,2.45
2018-02-16T11:20:50.306Z,1.70
2018-02-16T11:23:16.586Z,1.40
2018-02-16T11:25:43.630Z,1.52
2018-02-16T11:28:10.653Z,1.05
2018-02-16T11:30:37.098Z,3.17
2018-02-16T11:33:03.435Z,1.17
2018-02-16T11:35:30.456Z,4.50
2018-02-16T11:37:56.768Z,2.30
2018-02-16T11:40:23.090Z,2.25
2018-02-16T11:42:49.366Z,2.40
2018-02-16T11:45:16.418Z,1.12
2018-02-16T11:47:43.450Z,1.10
2018-02-16T11:50:09.748Z,1.10
2018-02-16T11:52:36.039Z,1.35
2018-02-16T11:55:03.087Z,1.08
2018-02-16T11:57:30.122Z,0.60
2018-02-16T11:59:56.435Z,0.50
2018-02-16T12:02:22.725Z,0.60
2018-02-16T12:04:48.998Z,0.60
2018-02-16T12:07:15.294Z,0.60
2018-02-16T12:09:41.599Z,0.60
2018-02-16T12:12:07.879Z,0.70
2018-02-16T12:14:34.922Z,1.00
2018-02-16T12:17:01.262Z,0.75
2018-02-16T12:19:28.877Z,0.90
2018-02-16T12:21:55.191Z,0.60
2018-02-16T12:24:21.472Z,1.10
2018-02-16T12:26:47.742Z,0.90
2018-02-16T12:29:14.798Z,0.90
2018-02-16T12:31:41.082Z,0.73
2018-02-16T12:34:07.419Z,0.80
2018-02-16T12:36:33.722Z,0.80
2018-02-16T12:38:59.991Z,1.00
2018-02-16T12:41:26.270Z,0.60
2018-02-16T12:43:52.622Z,0.98
2018-02-16T12:46:18.966Z,1.45
2018-02-16T12:48:45.257Z,0.80
2018-02-16T12:51:11.546Z,0.95
2018-02-16T12:53:39.580Z,2.40
2018-02-16T12:56:05.862Z,6.87
2018-02-16T12:58:32.899Z,8.23
2018-02-16T13:00:59.946Z,2.75
2018-02-16T13:03:26.300Z,1.90
2018-02-16T13:05:53.319Z,2.15
2018-02-16T13:08:19.836Z,1.62
2018-02-16T13:10:46.126Z,1.77
2018-02-16T13:13:13.488Z,1.60
2018-02-16T13:15:39.800Z,1.23
2018-02-16T13:18:06.132Z,1.20
2018-02-16T13:20:32.406Z,1.00
2018-02-16T13:22:58.719Z,1.40
2018-02-16T13:25:25.008Z,1.15
2018-02-16T13:27:52.062Z,5.70
2018-02-16T13:30:19.118Z,5.60
2018-02-16T13:32:46.139Z,9.35
2018-02-16T13:35:13.338Z,5.93
2018-02-16T13:37:39.626Z,4.05
2018-02-16T13:40:06.657Z,3.30
2018-02-16T13:42:33.694Z,1.95
2018-02-16T13:45:01.562Z,2.35
2018-02-16T13:47:27.891Z,2.78
2018-02-16T13:49:54.189Z,1.90
2018-02-16T13:52:20.513Z,2.10
2018-02-16T13:54:47.410Z,2.83
2018-02-16T13:57:13.693Z,1.25
2018-02-16T13:59:40.008Z,1.30
2018-02-16T14:02:06.293Z,1.10
2018-02-16T14:04:32.698Z,1.00
2018-02-16T14:06:59.035Z,1.40
2018-02-16T14:09:25.336Z,1.12
2018-02-16T14:11:51.602Z,1.20
2018-02-16T14:14:17.910Z,1.40
2018-02-16T14:16:44.186Z,1.60
2018-02-16T14:19:11.247Z,1.50
2018-02-16T14:21:38.279Z,1.30
2018-02-16T14:24:04.593Z,1.55
2018-02-16T14:26:30.893Z,1.30
2018-02-16T14:28:57.215Z,1.25
2018-02-16T14:31:23.491Z,1.62
2018-02-16T14:33:49.781Z,1.60
2018-02-16T14:36:16.071Z,1.37
2018-02-16T14:38:43.098Z,1.62
2018-02-16T14:41:09.378Z,1.55
2018-02-16T14:43:35.670Z,1.75
2018-02-16T14:46:01.959Z,2.25
2018-02-16T14:48:29.782Z,2.00
2018-02-16T14:50:56.840Z,2.17
2018-02-16T14:53:23.914Z,4.60
2018-02-16T14:55:50.189Z,3.35
2018-02-16T14:58:16.472Z,3.35
2018-02-16T15:00:42.778Z,2.85
2018-02-16T15:03:09.815Z,3.10
2018-02-16T15:05:36.854Z,3.15
2018-02-16T15:08:03.901Z,3.75
2018-02-16T15:10:30.914Z,3.62
2018-02-16T15:12:57.194Z,3.20
2018-02-16T15:15:24.211Z,2.58
2018-02-16T15:17:50.510Z,2.85
2018-02-16T15:20:16.786Z,2.95
2018-02-16T15:22:43.806Z,2.40
2018-02-16T15:25:10.105Z,2.72
2018-02-16T15:27:36.376Z,2.70
2018-02-16T15:30:03.699Z,3.17
2018-02-16T15:32:29.975Z,2.97
2018-02-16T15:34:56.996Z,2.60
2018-02-16T15:37:23.282Z,3.55
2018-02-16T15:39:49.563Z,3.70
2018-02-16T15:42:16.248Z,4.25
2018-02-16T15:44:42.550Z,3.58
2018-02-16T15:47:09.589Z,4.50
2018-02-16T15:49:35.890Z,5.35
2018-02-16T15:52:02.167Z,4.75
2018-02-16T15:54:29.215Z,4.32
2018-02-16T15:56:56.239Z,4.78
2018-02-16T15:59:22.553Z,4.45
2018-02-16T16:01:48.862Z,5.70
2018-02-16T16:04:15.134Z,5.37
2018-02-16T16:06:41.443Z,5.47
2018-02-16T16:09:07.720Z,5.55
2018-02-16T16:11:34.759Z,5.57
2018-02-16T16:14:01.787Z,5.85
2018-02-16T16:16:28.079Z,5.43
2018-02-16T16:18:54.386Z,5.60
2018-02-16T16:21:20.667Z,6.53
2018-02-16T16:23:46.943Z,5.30
2018-02-16T16:26:13.238Z,6.32
2018-02-16T16:28:39.527Z,7.57
2018-02-16T16:31:05.829Z,8.45
2018-02-16T16:33:32.875Z,7.47
2018-02-16T16:35:59.906Z,8.50
2018-02-16T16:38:26.922Z,10.80
2018-02-16T16:40:54.252Z,10.10
2018-02-16T16:43:20.545Z,10.45
2018-02-16T16:45:47.566Z,10.85
2018-02-16T16:48:13.866Z,10.75
2018-02-16T16:50:40.172Z,12.37
2018-02-16T16:53:06.470Z,10.60
2018-02-16T16:55:32.782Z,10.35
2018-02-16T16:57:59.103Z,11.65
2018-02-16T17:00:25.363Z,11.85
2018-02-16T17:02:52.391Z,10.90
2018-02-16T17:05:18.713Z,12.05
2018-02-16T17:07:45.004Z,12.82
2018-02-16T17:10:11.295Z,12.50
2018-02-16T17:12:37.934Z,13.43
2018-02-16T17:15:04.213Z,19.30
2018-02-16T17:17:30.520Z,24.05
2018-02-16T17:19:56.843Z,16.85
2018-02-16T17:22:24.900Z,18.58
2018-02-16T17:24:51.182Z,17.17
2018-02-16T17:27:17.490Z,18.10
2018-02-16T17:29:43.803Z,16.08
2018-02-16T17:32:10.843Z,15.45
2018-02-16T17:34:37.147Z,23.12
2018-02-16T17:37:03.493Z,20.17
2018-02-16T17:39:29.780Z,14.73
2018-02-16T17:41:56.095Z,15.10
2018-02-16T17:44:22.370Z,14.10
2018-02-16T17:46:48.649Z,15.05
2018-02-16T17:49:15.023Z,14.50
2018-02-16T17:51:41.315Z,13.07
2018-02-16T17:54:07.611Z,16.85
2018-02-16T17:56:33.900Z,13.45
2018-02-16T17:59:00.199Z,15.52
2018-02-16T18:01:26.499Z,13.82
2018-02-16T18:03:53.514Z,15.07
2018-02-16T18:06:19.814Z,14.77
2018-02-16T18:08:46.088Z,14.80
2018-02-16T18:11:12.366Z,14.55
2018-02-16T18:13:38.651Z,14.43
2018-02-16T18:16:04.950Z,15.02
2018-02-16T18:18:31.250Z,17.40
2018-02-16T18:20:58.279Z,22.23
2018-02-16T18:23:25.343Z,34.55
2018-02-16T18:25:52.390Z,16.87
2018-02-16T18:28:19.471Z,16.25
2018-02-16T18:30:46.802Z,21.95
2018-02-16T18:33:13.863Z,20.35
2018-02-16T18:35:40.906Z,16.85
2018-02-16T18:38:07.927Z,17.50
2018-02-16T18:40:34.219Z,16.85
2018-02-16T18:43:00.571Z,20.75
2018-02-16T18:45:26.929Z,20.25
2018-02-16T18:47:53.187Z,14.98
2018-02-16T18:50:19.518Z,15.55
2018-02-16T18:52:45.802Z,14.80
2018-02-16T18:55:12.106Z,14.25
2018-02-16T18:57:38.376Z,14.48
2018-02-16T19:00:04.710Z,15.27
2018-02-16T19:02:30.980Z,20.55
2018-02-16T19:04:57.298Z,34.45
2018-02-16T19:07:23.595Z,38.63
2018-02-16T19:09:49.871Z,30.85
2018-02-16T19:12:16.164Z,24.63
2018-02-16T19:14:43.186Z,14.75
2018-02-16T19:17:10.543Z,15.25
2018-02-16T19:19:36.838Z,20.52
2018-02-16T19:22:03.134Z,33.72
2018-02-16T19:24:30.191Z,28.17
2018-02-16T19:26:56.518Z,31.80
2018-02-16T19:29:23.559Z,22.98
2018-02-16T19:31:50.600Z,35.63
2018-02-16T19:34:17.706Z,23.52
2018-02-16T19:36:43.995Z,26.33
2018-02-16T19:39:10.315Z,20.25
2018-02-16T19:41:37.380Z,35.47
2018-02-16T19:44:03.695Z,27.75
2018-02-16T19:46:30.727Z,35.60
2018-02-16T19:48:57.052Z,35.30
2018-02-16T19:51:23.338Z,14.93
2018-02-16T19:53:49.631Z,24.30
2018-02-16T19:56:16.651Z,24.92
2018-02-16T19:58:42.966Z,21.55
2018-02-16T20:01:09.267Z,29.23
2018-02-16T20:03:40.492Z,16.62
2018-02-16T20:06:07.522Z,21.23
2018-02-16T20:08:34.546Z,22.90
2018-02-16T20:11:00.827Z,33.38
2018-02-16T20:13:27.130Z,43.85
2018-02-16T20:15:54.190Z,49.17
2018-02-16T20:18:21.220Z,58.63
2018-02-16T20:20:48.264Z,54.70
2018-02-16T20:23:14.598Z,65.75
2018-02-16T20:25:40.935Z,60.17
2018-02-16T20:28:07.969Z,59.25
2018-02-16T20:30:34.275Z,85.65
2018-02-16T20:33:00.562Z,50.97
2018-02-16T20:35:27.668Z,40.63
2018-02-16T20:37:53.947Z,40.40
2018-02-16T20:40:20.248Z,29.02
2018-02-16T20:42:46.578Z,31.42
2018-02-16T20:45:12.883Z,28.20
2018-02-16T20:47:39.199Z,42.15
2018-02-16T20:50:05.579Z,37.35
2018-02-16T20:52:32.616Z,24.30
2018-02-16T20:54:58.908Z,26.23
2018-02-16T20:57:25.187Z,26.98
2018-02-16T20:59:52.247Z,22.02
2018-02-16T21:02:19.507Z,22.23
2018-02-16T21:04:45.817Z,21.52
2018-02-16T21:07:12.845Z,25.88
2018-02-16T21:09:39.181Z,27.17
2018-02-16T21:12:05.480Z,27.62
2018-02-16T21:14:31.811Z,25.33
2018-02-16T21:16:58.143Z,22.13
2018-02-16T21:19:24.459Z,22.37
2018-02-16T21:21:51.395Z,19.58
2018-02-16T21:24:17.676Z,21.70
2018-02-16T21:26:44.746Z,24.30
2018-02-16T21:29:11.787Z,21.20
2018-02-16T21:31:38.101Z,25.33
2018-02-16T21:34:04.389Z,22.17
2018-02-16T21:36:30.720Z,24.58
2018-02-16T21:38:57.052Z,23.77
2018-02-16T21:41:23.327Z,22.65
2018-02-16T21:43:49.609Z,19.98
2018-02-16T21:46:15.924Z,22.30
2018-02-16T21:48:42.267Z,22.00
2018-02-16T21:51:08.580Z,20.45
2018-02-16T21:53:34.897Z,17.60
2018-02-16T21:56:01.931Z,17.95
2018-02-16T21:58:28.210Z,15.75
2018-02-16T22:00:55.539Z,18.35
2018-02-16T22:03:21.862Z,19.95
2018-02-16T22:05:48.917Z,19.83
2018-02-16T22:08:16.958Z,20.00
2018-02-16T22:10:43.256Z,25.70
2018-02-16T22:13:09.531Z,28.55
2018-02-16T22:15:36.728Z,30.95
2018-02-16T22:18:03.022Z,29.98
2018-02-16T22:20:30.055Z,22.77
2018-02-16T22:22:57.074Z,36.42
2018-02-16T22:25:23.362Z,32.97
2018-02-16T22:27:49.659Z,40.95
2018-02-16T22:30:15.950Z,43.38
2018-02-16T22:32:42.255Z,44.28
2018-02-16T22:35:09.565Z,21.20
2018-02-16T22:37:35.851Z,37.28
2018-02-16T22:40:02.166Z,44.25
2018-02-16T22:42:28.454Z,33.45
2018-02-16T22:44:54.746Z,29.63
2018-02-16T22:47:21.051Z,26.23
2018-02-16T22:49:47.326Z,40.55
2018-02-16T22:52:13.595Z,23.38
2018-02-16T22:54:40.625Z,29.75
2018-02-16T22:57:06.928Z,35.28
2018-02-16T22:59:33.214Z,21.48
2018-02-16T23:02:03.889Z,24.17
2018-02-16T23:04:34.070Z,21.37
2018-02-16T23:07:07.445Z,22.52
2018-02-16T23:09:42.482Z,25.92
2018-02-16T23:12:13.475Z,22.02
2018-02-16T23:14:46.694Z,18.08
2018-02-16T23:17:19.459Z,17.98
2018-02-16T23:19:51.270Z,18.20
2018-02-16T23:24:50.810Z,16.85
2018-02-16T23:27:17.143Z,19.85
2018-02-16T23:32:15.602Z,20.77
2018-02-16T23:34:41.898Z,15.40
2018-02-16T23:37:09.642Z,17.08
2018-02-16T23:39:39.414Z,19.05
2018-02-16T23:42:05.699Z,18.35
2018-02-16T23:44:39.369Z,17.85
2018-02-16T23:49:40.775Z,15.52
2018-02-16T23:52:07.050Z,16.70
2018-02-16T23:54:33.345Z,17.00
